createdAt,value
2023-05-10T00:00:26.168Z,0
2023-05-10T00:01:26.157Z,0
2023-05-10T00:02:26.202Z,0
2023-05-10T00:03:26.198Z,0
2023-05-10T00:04:26.141Z,0
2023-05-10T00:05:26.148Z,0
2023-05-10T00:06:26.136Z,0
2023-05-10T00:07:26.147Z,0
2023-05-10T00:08:26.142Z,0
2023-05-10T00:09:26.132Z,0
2023-05-10T00:10:26.140Z,0
2023-05-10T00:11:26.133Z,0
2023-05-10T00:12:26.137Z,0
2023-05-10T00:13:26.334Z,0
2023-05-10T00:14:26.175Z,0
2023-05-10T00:15:26.159Z,0
2023-05-10T00:16:26.203Z,0
2023-05-10T00:17:26.175Z,0
2023-05-10T00:18:26.129Z,0
2023-05-10T00:19:26.146Z,0
2023-05-10T00:20:26.148Z,0
2023-05-10T00:21:26.143Z,0
2023-05-10T00:22:26.162Z,0
2023-05-10T00:23:26.155Z,0
2023-05-10T00:24:26.188Z,0
2023-05-10T00:25:26.142Z,0
2023-05-10T00:26:26.132Z,0
2023-05-10T00:27:26.140Z,0
2023-05-10T00:28:26.149Z,0
2023-05-10T00:29:26.136Z,0
2023-05-10T00:30:26.148Z,0
2023-05-10T00:31:26.175Z,0
2023-05-10T00:32:26.196Z,0
2023-05-10T00:33:26.148Z,0
2023-05-10T00:34:26.145Z,0
2023-05-10T00:35:26.164Z,0
2023-05-10T00:36:26.170Z,0
2023-05-10T00:37:26.153Z,0
2023-05-10T00:38:26.155Z,0
2023-05-10T00:39:26.150Z,0
2023-05-10T00:40:26.130Z,0
2023-05-10T00:41:26.143Z,0
2023-05-10T00:42:26.148Z,0
2023-05-10T00:43:26.136Z,0
2023-05-10T00:44:26.141Z,0
2023-05-10T00:45:26.152Z,0
2023-05-10T00:46:26.136Z,0
2023-05-10T00:47:26.173Z,0
2023-05-10T00:48:26.142Z,0
2023-05-10T00:49:26.151Z,0
2023-05-10T00:50:26.133Z,0
2023-05-10T00:51:26.154Z,0
2023-05-10T00:52:26.148Z,0
2023-05-10T00:53:26.148Z,0
2023-05-10T00:54:26.145Z,0
2023-05-10T00:55:26.132Z,0
2023-05-10T00:56:26.137Z,0
2023-05-10T00:57:26.142Z,0
2023-05-10T00:58:26.138Z,0
2023-05-10T00:59:26.140Z,0
2023-05-10T01:00:26.148Z,0
2023-05-10T01:01:26.178Z,0
2023-05-10T01:02:26.256Z,0
2023-05-10T01:03:26.260Z,0
2023-05-10T01:04:26.187Z,0
2023-05-10T01:05:26.186Z,0
2023-05-10T01:06:26.162Z,0
2023-05-10T01:07:26.149Z,0
2023-05-10T01:08:26.165Z,0
2023-05-10T01:09:26.183Z,0
2023-05-10T01:10:26.160Z,0
2023-05-10T01:11:26.158Z,0
2023-05-10T01:12:26.233Z,0
2023-05-10T01:13:26.373Z,0
2023-05-10T01:14:26.156Z,0
2023-05-10T01:15:26.158Z,0
2023-05-10T01:16:26.324Z,0
2023-05-10T01:17:26.203Z,0
2023-05-10T01:18:26.157Z,0
2023-05-10T01:19:26.144Z,0
2023-05-10T01:20:26.161Z,0
2023-05-10T01:21:26.145Z,0
2023-05-10T01:22:26.154Z,0
2023-05-10T01:23:26.154Z,0
2023-05-10T01:24:26.149Z,0
2023-05-10T01:25:26.159Z,0
2023-05-10T01:26:26.156Z,0
2023-05-10T01:27:26.152Z,0
2023-05-10T01:28:26.180Z,0
2023-05-10T01:29:26.153Z,0
2023-05-10T01:30:26.488Z,0
2023-05-10T01:31:26.184Z,0
2023-05-10T01:32:26.198Z,0
2023-05-10T01:33:26.153Z,0
2023-05-10T01:34:26.161Z,0
2023-05-10T01:35:26.169Z,0
2023-05-10T01:36:26.168Z,0
2023-05-10T01:37:26.132Z,0
2023-05-10T01:38:26.145Z,0
2023-05-10T01:39:26.144Z,0
2023-05-10T01:40:26.152Z,0
2023-05-10T01:41:26.151Z,0
2023-05-10T01:42:26.148Z,0
2023-05-10T01:43:26.153Z,0
2023-05-10T01:44:26.146Z,0
2023-05-10T01:45:26.155Z,0
2023-05-10T01:46:26.159Z,0
2023-05-10T01:47:26.196Z,0
2023-05-10T01:48:26.151Z,0
2023-05-10T01:49:26.157Z,0
2023-05-10T01:50:26.148Z,0
2023-05-10T01:51:26.164Z,0
2023-05-10T01:52:26.136Z,0
2023-05-10T01:53:26.144Z,0
2023-05-10T01:54:26.160Z,0
2023-05-10T01:55:26.147Z,0
2023-05-10T01:56:26.148Z,0
2023-05-10T01:57:26.140Z,0
2023-05-10T01:58:26.141Z,0
2023-05-10T01:59:26.161Z,0
2023-05-10T02:00:26.157Z,0
2023-05-10T02:01:26.153Z,0
2023-05-10T02:02:26.187Z,0
2023-05-10T02:03:26.187Z,0
2023-05-10T02:04:26.161Z,0
2023-05-10T02:05:26.162Z,0
2023-05-10T02:06:26.144Z,0
2023-05-10T02:07:26.161Z,0
2023-05-10T02:08:26.140Z,0
2023-05-10T02:09:26.148Z,0
2023-05-10T02:10:26.145Z,0
2023-05-10T02:11:26.133Z,0
2023-05-10T02:12:26.147Z,0
2023-05-10T02:13:26.253Z,0
2023-05-10T02:14:26.156Z,0
2023-05-10T02:15:26.161Z,0
2023-05-10T02:16:26.246Z,0
2023-05-10T02:17:26.177Z,0
2023-05-10T02:18:26.147Z,0
2023-05-10T02:19:26.153Z,0
2023-05-10T02:20:26.148Z,0
2023-05-10T02:21:26.145Z,0
2023-05-10T02:22:26.141Z,0
2023-05-10T02:23:26.152Z,0
2023-05-10T02:24:26.153Z,0
2023-05-10T02:25:26.168Z,0
2023-05-10T02:26:26.145Z,0
2023-05-10T02:27:26.152Z,0
2023-05-10T02:28:26.147Z,0
2023-05-10T02:29:26.158Z,0
2023-05-10T02:30:26.147Z,0
2023-05-10T02:31:26.181Z,0
2023-05-10T02:32:26.223Z,0
2023-05-10T02:33:26.153Z,0
2023-05-10T02:34:26.163Z,0
2023-05-10T02:35:26.143Z,0
2023-05-10T02:36:26.148Z,0
2023-05-10T02:37:26.139Z,0
2023-05-10T02:38:26.196Z,0
2023-05-10T02:39:26.156Z,0
2023-05-10T02:40:28.554Z,0
2023-05-10T02:41:26.144Z,0
2023-05-10T02:42:26.139Z,0
2023-05-10T02:43:26.138Z,0
2023-05-10T02:44:26.145Z,0
2023-05-10T02:45:26.157Z,0
2023-05-10T02:46:26.166Z,0
2023-05-10T02:47:26.152Z,0
2023-05-10T02:48:26.139Z,0
2023-05-10T02:49:26.152Z,0
2023-05-10T02:50:26.146Z,0
2023-05-10T02:51:26.149Z,1
2023-05-10T02:52:26.140Z,1
2023-05-10T02:53:26.146Z,3
2023-05-10T02:54:26.155Z,3
2023-05-10T02:55:26.149Z,5
2023-05-10T02:56:26.167Z,5
2023-05-10T02:57:26.156Z,7
2023-05-10T02:58:26.145Z,9
2023-05-10T02:59:26.166Z,11
2023-05-10T03:00:26.156Z,12
2023-05-10T03:01:26.180Z,14
2023-05-10T03:02:26.207Z,16
2023-05-10T03:03:26.147Z,20
2023-05-10T03:04:26.232Z,23
2023-05-10T03:05:26.142Z,29
2023-05-10T03:06:26.142Z,33
2023-05-10T03:07:26.155Z,33
2023-05-10T03:08:26.156Z,42
2023-05-10T03:09:26.155Z,49
2023-05-10T03:10:26.142Z,57
2023-05-10T03:11:26.152Z,64
2023-05-10T03:12:26.153Z,71
2023-05-10T03:13:26.170Z,81
2023-05-10T03:14:26.151Z,90
2023-05-10T03:15:26.171Z,101
2023-05-10T03:16:26.318Z,112
2023-05-10T03:17:26.208Z,125
2023-05-10T03:18:26.148Z,138
2023-05-10T03:19:26.152Z,151
2023-05-10T03:20:26.152Z,167
2023-05-10T03:21:26.151Z,184
2023-05-10T03:22:26.161Z,199
2023-05-10T03:23:26.131Z,217
2023-05-10T03:24:26.153Z,237
2023-05-10T03:25:26.137Z,256
2023-05-10T03:26:26.145Z,276
2023-05-10T03:27:26.154Z,298
2023-05-10T03:28:26.132Z,320
2023-05-10T03:29:26.145Z,344
2023-05-10T03:30:26.147Z,368
2023-05-10T03:31:26.163Z,392
2023-05-10T03:32:26.166Z,418
2023-05-10T03:33:26.143Z,444
2023-05-10T03:34:26.201Z,471
2023-05-10T03:35:26.145Z,495
2023-05-10T03:36:26.139Z,523
2023-05-10T03:37:26.159Z,552
2023-05-10T03:38:27.329Z,586
2023-05-10T03:39:26.172Z,611
2023-05-10T03:40:26.147Z,639
2023-05-10T03:41:26.155Z,667
2023-05-10T03:42:26.163Z,696
2023-05-10T03:43:26.158Z,728
2023-05-10T03:44:26.148Z,755
2023-05-10T03:45:26.164Z,790
2023-05-10T03:46:26.165Z,818
2023-05-10T03:47:26.230Z,847
2023-05-10T03:48:26.163Z,879
2023-05-10T03:49:26.136Z,906
2023-05-10T03:50:26.159Z,936
2023-05-10T03:51:26.157Z,967
2023-05-10T03:52:26.147Z,999
2023-05-10T03:53:26.168Z,1026
2023-05-10T03:54:26.145Z,1058
2023-05-10T03:55:26.189Z,1085
2023-05-10T03:56:26.162Z,1115
2023-05-10T03:57:26.150Z,1148
2023-05-10T03:58:26.184Z,1174
2023-05-10T03:59:26.159Z,1205
2023-05-10T04:00:26.150Z,1231
2023-05-10T04:01:26.153Z,1262
2023-05-10T04:02:26.355Z,1290
2023-05-10T04:03:26.206Z,1317
2023-05-10T04:04:26.140Z,1345
2023-05-10T04:05:26.156Z,1369
2023-05-10T04:06:26.234Z,1397
2023-05-10T04:07:26.148Z,1397
2023-05-10T04:08:26.151Z,1452
2023-05-10T04:09:26.150Z,1474
2023-05-10T04:10:26.139Z,1502
2023-05-10T04:11:26.152Z,1524
2023-05-10T04:12:26.161Z,1553
2023-05-10T04:13:26.230Z,1572
2023-05-10T04:14:26.149Z,1601
2023-05-10T04:15:26.178Z,1623
2023-05-10T04:16:26.188Z,1644
2023-05-10T04:17:26.170Z,1681
2023-05-10T04:18:26.176Z,1693
2023-05-10T04:19:26.203Z,1721
2023-05-10T04:20:26.149Z,1741
2023-05-10T04:21:26.150Z,1773
2023-05-10T04:22:26.169Z,1782
2023-05-10T04:23:26.166Z,1811
2023-05-10T04:24:26.150Z,1830
2023-05-10T04:25:26.153Z,1852
2023-05-10T04:26:26.147Z,1870
2023-05-10T04:27:26.149Z,1892
2023-05-10T04:28:26.156Z,1911
2023-05-10T04:29:26.169Z,1931
2023-05-10T04:30:26.164Z,1955
2023-05-10T04:31:26.209Z,1974
2023-05-10T04:32:26.170Z,1988
2023-05-10T04:33:26.146Z,2007
2023-05-10T04:34:26.143Z,2027
2023-05-10T04:35:26.146Z,2055
2023-05-10T04:36:26.146Z,2062
2023-05-10T04:37:26.166Z,2082
2023-05-10T04:38:26.152Z,2097
2023-05-10T04:39:26.157Z,2117
2023-05-10T04:40:26.137Z,2134
2023-05-10T04:41:26.146Z,2147
2023-05-10T04:42:26.160Z,2169
2023-05-10T04:43:26.151Z,2176
2023-05-10T04:44:26.160Z,2198
2023-05-10T04:45:26.161Z,2213
2023-05-10T04:46:26.160Z,2226
2023-05-10T04:47:26.172Z,2246
2023-05-10T04:48:26.138Z,2256
2023-05-10T04:49:26.150Z,2281
2023-05-10T04:50:26.132Z,2289
2023-05-10T04:51:26.153Z,2311
2023-05-10T04:52:26.157Z,2316
2023-05-10T04:53:26.152Z,2340
2023-05-10T04:54:26.144Z,2348
2023-05-10T04:55:26.148Z,2375
2023-05-10T04:56:26.152Z,2374
2023-05-10T04:57:26.155Z,2383
2023-05-10T04:58:26.159Z,2407
2023-05-10T04:59:26.159Z,2414
2023-05-10T05:00:26.152Z,2423
2023-05-10T05:01:26.207Z,2436
2023-05-10T05:02:26.195Z,2451
2023-05-10T05:03:26.211Z,2471
2023-05-10T05:04:26.148Z,2484
2023-05-10T05:05:26.134Z,2492
2023-05-10T05:06:26.154Z,2510
2023-05-10T05:07:26.150Z,2510
2023-05-10T05:08:26.141Z,2528
2023-05-10T05:09:26.145Z,2549
2023-05-10T05:10:26.137Z,2562
2023-05-10T05:11:26.148Z,2571
2023-05-10T05:12:26.160Z,2582
2023-05-10T05:13:26.206Z,2595
2023-05-10T05:14:26.209Z,2606
2023-05-10T05:15:26.177Z,2621
2023-05-10T05:16:26.181Z,2635
2023-05-10T05:17:26.247Z,2635
2023-05-10T05:18:26.146Z,2648
2023-05-10T05:19:26.145Z,2672
2023-05-10T05:20:26.136Z,2670
2023-05-10T05:21:26.151Z,2681
2023-05-10T05:22:26.161Z,2705
2023-05-10T05:23:26.162Z,2705
2023-05-10T05:24:26.149Z,2724
2023-05-10T05:25:26.167Z,2727
2023-05-10T05:26:26.159Z,2739
2023-05-10T05:27:26.159Z,2757
2023-05-10T05:28:26.137Z,2761
2023-05-10T05:29:26.154Z,2781
2023-05-10T05:30:26.149Z,2790
2023-05-10T05:31:26.181Z,2809
2023-05-10T05:32:26.228Z,2814
2023-05-10T05:33:26.138Z,2820
2023-05-10T05:34:26.141Z,2836
2023-05-10T05:35:26.149Z,2840
2023-05-10T05:36:26.151Z,2855
2023-05-10T05:37:26.161Z,2868
2023-05-10T05:38:26.151Z,2869
2023-05-10T05:39:26.145Z,2893
2023-05-10T05:40:26.131Z,2899
2023-05-10T05:41:26.149Z,2903
2023-05-10T05:42:26.226Z,2919
2023-05-10T05:43:26.152Z,2934
2023-05-10T05:44:26.148Z,2943
2023-05-10T05:45:26.168Z,2958
2023-05-10T05:46:26.213Z,2963
2023-05-10T05:47:26.222Z,2973
2023-05-10T05:48:26.148Z,2987
2023-05-10T05:49:26.142Z,2989
2023-05-10T05:50:26.133Z,3011
2023-05-10T05:51:26.154Z,3028
2023-05-10T05:52:26.154Z,3033
2023-05-10T05:53:26.152Z,3044
2023-05-10T05:54:26.148Z,3054
2023-05-10T05:55:26.153Z,3068
2023-05-10T05:56:26.175Z,3081
2023-05-10T05:57:26.139Z,3089
2023-05-10T05:58:26.151Z,3107
2023-05-10T05:59:26.144Z,3120
2023-05-10T06:00:26.152Z,3124
2023-05-10T06:01:26.177Z,3151
2023-05-10T06:02:26.244Z,3151
2023-05-10T06:03:26.231Z,3161
2023-05-10T06:04:26.172Z,3181
2023-05-10T06:05:26.157Z,3196
2023-05-10T06:06:26.149Z,3196
2023-05-10T06:07:26.142Z,3196
2023-05-10T06:08:26.141Z,3205
2023-05-10T06:09:26.147Z,3218
2023-05-10T06:10:26.141Z,3227
2023-05-10T06:11:26.150Z,3255
2023-05-10T06:12:26.130Z,3262
2023-05-10T06:13:26.193Z,3267
2023-05-10T06:14:26.154Z,3286
2023-05-10T06:15:26.161Z,3297
2023-05-10T06:16:26.148Z,3306
2023-05-10T06:17:26.249Z,3334
2023-05-10T06:18:26.151Z,3349
2023-05-10T06:19:26.154Z,3367
2023-05-10T06:20:26.173Z,3367
2023-05-10T06:21:26.155Z,3389
2023-05-10T06:22:26.138Z,3384
2023-05-10T06:23:26.142Z,3411
2023-05-10T06:24:26.148Z,3422
2023-05-10T06:25:26.166Z,3433
2023-05-10T06:26:26.143Z,3461
2023-05-10T06:27:26.163Z,3478
2023-05-10T06:28:26.145Z,3478
2023-05-10T06:29:26.149Z,3496
2023-05-10T06:30:26.164Z,3520
2023-05-10T06:31:26.170Z,3542
2023-05-10T06:32:26.182Z,3553
2023-05-10T06:33:26.145Z,3559
2023-05-10T06:34:26.147Z,3579
2023-05-10T06:35:26.161Z,3579
2023-05-10T06:36:26.152Z,3603
2023-05-10T06:37:26.145Z,3616
2023-05-10T06:38:26.145Z,3625
2023-05-10T06:39:26.167Z,3660
2023-05-10T06:40:26.187Z,3677
2023-05-10T06:41:26.147Z,3697
2023-05-10T06:42:26.144Z,3717
2023-05-10T06:43:26.159Z,3736
2023-05-10T06:44:26.156Z,3756
2023-05-10T06:45:26.169Z,3778
2023-05-10T06:46:26.216Z,3780
2023-05-10T06:47:26.226Z,3833
2023-05-10T06:48:26.152Z,3881
2023-05-10T06:49:26.141Z,3942
2023-05-10T06:50:26.150Z,5234
2023-05-10T06:51:26.146Z,8347
2023-05-10T06:52:26.149Z,10355
2023-05-10T06:53:26.150Z,10834
2023-05-10T06:54:26.139Z,11083
2023-05-10T06:55:26.151Z,11127
2023-05-10T06:56:26.143Z,11177
2023-05-10T06:57:31.597Z,11330
2023-05-10T06:58:26.158Z,11341
2023-05-10T06:59:26.179Z,11580
2023-05-10T07:00:26.231Z,11558
2023-05-10T07:01:26.212Z,11803
2023-05-10T07:02:26.323Z,11982
2023-05-10T07:03:26.145Z,11446
2023-05-10T07:04:26.168Z,11217
2023-05-10T07:05:26.194Z,12122
2023-05-10T07:06:33.429Z,12178
2023-05-10T07:07:26.148Z,12178
2023-05-10T07:08:26.146Z,12496
2023-05-10T07:09:26.145Z,12526
2023-05-10T07:10:26.135Z,12375
2023-05-10T07:11:26.144Z,12213
2023-05-10T07:12:26.183Z,12714
2023-05-10T07:13:26.150Z,12920
2023-05-10T07:14:26.146Z,13025
2023-05-10T07:15:26.242Z,13160
2023-05-10T07:16:26.185Z,13103
2023-05-10T07:17:26.251Z,12773
2023-05-10T07:18:26.239Z,12498
2023-05-10T07:19:26.150Z,13035
2023-05-10T07:20:26.128Z,12609
2023-05-10T07:21:26.238Z,12535
2023-05-10T07:22:26.142Z,12657
2023-05-10T07:23:26.147Z,12931
2023-05-10T07:24:26.150Z,12900
2023-05-10T07:25:26.148Z,12944
2023-05-10T07:26:26.160Z,13000
2023-05-10T07:27:26.143Z,13245
2023-05-10T07:28:26.145Z,13287
2023-05-10T07:29:26.150Z,13365
2023-05-10T07:30:26.198Z,13685
2023-05-10T07:31:26.155Z,14028
2023-05-10T07:32:26.400Z,14080
2023-05-10T07:33:26.138Z,14314
2023-05-10T07:34:26.161Z,14679
2023-05-10T07:35:26.166Z,14590
2023-05-10T07:36:26.164Z,14378
2023-05-10T07:37:26.150Z,14441
2023-05-10T07:38:26.147Z,14443
2023-05-10T07:39:27.975Z,14542
2023-05-10T07:40:26.145Z,14988
2023-05-10T07:41:26.150Z,14999
2023-05-10T07:42:26.149Z,14727
2023-05-10T07:43:26.153Z,14893
2023-05-10T07:44:26.170Z,14705
2023-05-10T07:45:26.164Z,15143
2023-05-10T07:46:26.315Z,15486
2023-05-10T07:47:26.230Z,15385
2023-05-10T07:48:26.139Z,15171
2023-05-10T07:49:26.146Z,15195
2023-05-10T07:50:26.149Z,15436
2023-05-10T07:51:26.145Z,15554
2023-05-10T07:52:26.148Z,15501
2023-05-10T07:53:26.141Z,15235
2023-05-10T07:54:26.156Z,15434
2023-05-10T07:55:26.160Z,15917
2023-05-10T07:56:26.148Z,16251
2023-05-10T07:57:26.149Z,16286
2023-05-10T07:58:26.153Z,15975
2023-05-10T07:59:26.150Z,15693
2023-05-10T08:00:26.156Z,15617
2023-05-10T08:01:26.148Z,15626
2023-05-10T08:02:26.210Z,15446
2023-05-10T08:03:26.286Z,15412
2023-05-10T08:04:26.231Z,15416
2023-05-10T08:05:26.138Z,15403
2023-05-10T08:06:26.141Z,15469
2023-05-10T08:07:26.141Z,15469
2023-05-10T08:08:26.142Z,15908
2023-05-10T08:09:26.140Z,16092
2023-05-10T08:10:26.127Z,16074
2023-05-10T08:11:26.258Z,15978
2023-05-10T08:12:26.131Z,15862
2023-05-10T08:13:26.147Z,15969
2023-05-10T08:14:26.135Z,16268
2023-05-10T08:15:26.163Z,17036
2023-05-10T08:16:26.183Z,17119
2023-05-10T08:17:26.161Z,16443
2023-05-10T08:18:26.160Z,16163
2023-05-10T08:19:26.138Z,15995
2023-05-10T08:20:26.158Z,15374
2023-05-10T08:21:26.137Z,17442
2023-05-10T08:22:26.144Z,16249
2023-05-10T08:23:26.146Z,15587
2023-05-10T08:24:26.141Z,16894
2023-05-10T08:25:26.135Z,17259
2023-05-10T08:26:26.146Z,17421
2023-05-10T08:27:26.149Z,17504
2023-05-10T08:28:26.133Z,17429
2023-05-10T08:29:26.799Z,17178
2023-05-10T08:30:26.162Z,16929
2023-05-10T08:31:26.200Z,17351
2023-05-10T08:32:26.233Z,18030
2023-05-10T08:33:26.130Z,18247
2023-05-10T08:34:26.374Z,17891
2023-05-10T08:35:26.142Z,17685
2023-05-10T08:36:26.150Z,18033
2023-05-10T08:37:26.142Z,17860
2023-05-10T08:38:26.152Z,18588
2023-05-10T08:39:30.253Z,18352
2023-05-10T08:40:26.136Z,18290
2023-05-10T08:41:26.188Z,18197
2023-05-10T08:42:26.138Z,17825
2023-05-10T08:43:26.190Z,17700
2023-05-10T08:44:26.195Z,17700
2023-05-10T08:45:26.208Z,18369
2023-05-10T08:46:26.200Z,18531
2023-05-10T08:47:26.191Z,18675
2023-05-10T08:48:26.224Z,18570
2023-05-10T08:49:26.141Z,18417
2023-05-10T08:50:26.146Z,18752
2023-05-10T08:51:26.140Z,19077
2023-05-10T08:52:26.145Z,18986
2023-05-10T08:53:26.153Z,18745
2023-05-10T08:54:26.143Z,18655
2023-05-10T08:55:26.159Z,18835
2023-05-10T08:56:26.169Z,19213
2023-05-10T08:57:26.143Z,19390
2023-05-10T08:58:26.151Z,19283
2023-05-10T08:59:26.154Z,19272
2023-05-10T09:00:26.155Z,19521
2023-05-10T09:01:26.166Z,19377
2023-05-10T09:02:26.152Z,18970
2023-05-10T09:03:26.153Z,19115
2023-05-10T09:04:26.250Z,19454
2023-05-10T09:05:26.182Z,19913
2023-05-10T09:06:26.137Z,22011
2023-05-10T09:07:26.142Z,22011
2023-05-10T09:08:26.130Z,19814
2023-05-10T09:09:26.156Z,19880
2023-05-10T09:10:26.147Z,19901
2023-05-10T09:11:26.134Z,19797
2023-05-10T09:12:26.145Z,19795
2023-05-10T09:13:26.186Z,19827
2023-05-10T09:14:26.191Z,19751
2023-05-10T09:15:26.191Z,19834
2023-05-10T09:16:26.205Z,20135
2023-05-10T09:17:26.268Z,19851
2023-05-10T09:18:28.014Z,19596
2023-05-10T09:19:26.152Z,22090
2023-05-10T09:20:26.136Z,20957
2023-05-10T09:21:26.178Z,21112
2023-05-10T09:22:26.141Z,20997
2023-05-10T09:23:26.160Z,20986
2023-05-10T09:24:26.148Z,20901
2023-05-10T09:25:26.187Z,21041
2023-05-10T09:26:26.133Z,21095
2023-05-10T09:27:26.147Z,21010
2023-05-10T09:28:26.155Z,20852
2023-05-10T09:29:26.162Z,20472
2023-05-10T09:30:26.157Z,20383
2023-05-10T09:31:26.308Z,20682
2023-05-10T09:32:26.204Z,21086
2023-05-10T09:33:26.154Z,21189
2023-05-10T09:34:26.145Z,21281
2023-05-10T09:35:28.818Z,21594
2023-05-10T09:36:26.143Z,21657
2023-05-10T09:37:26.149Z,21382
2023-05-10T09:38:26.147Z,21030
2023-05-10T09:39:26.146Z,21049
2023-05-10T09:40:26.131Z,20853
2023-05-10T09:41:26.151Z,20986
2023-05-10T09:42:26.146Z,21139
2023-05-10T09:43:26.138Z,21504
2023-05-10T09:44:26.159Z,21945
2023-05-10T09:45:26.162Z,20962
2023-05-10T09:46:26.178Z,20905
2023-05-10T09:47:26.194Z,20758
2023-05-10T09:48:26.164Z,20546
2023-05-10T09:49:26.152Z,20426
2023-05-10T09:50:26.135Z,20632
2023-05-10T09:51:26.159Z,20695
2023-05-10T09:52:26.145Z,20658
2023-05-10T09:53:26.131Z,20918
2023-05-10T09:54:26.145Z,21132
2023-05-10T09:55:26.153Z,21194
2023-05-10T09:56:26.158Z,21183
2023-05-10T09:57:26.160Z,21231
2023-05-10T09:58:26.153Z,21537
2023-05-10T09:59:26.147Z,21742
2023-05-10T10:00:26.160Z,21829
2023-05-10T10:01:26.207Z,21742
2023-05-10T10:02:26.172Z,23233
2023-05-10T10:03:27.809Z,20706
2023-05-10T10:04:26.183Z,20881
2023-05-10T10:05:26.156Z,20968
2023-05-10T10:06:30.259Z,20758
2023-05-10T10:07:26.139Z,20758
2023-05-10T10:08:26.153Z,21609
2023-05-10T10:09:26.169Z,21629
2023-05-10T10:10:26.153Z,20691
2023-05-10T10:11:26.149Z,21771
2023-05-10T10:12:26.152Z,21605
2023-05-10T10:13:26.165Z,21550
2023-05-10T10:14:26.145Z,21370
2023-05-10T10:15:26.167Z,21277
2023-05-10T10:16:26.219Z,21364
2023-05-10T10:17:26.221Z,21277
2023-05-10T10:18:26.170Z,21220
2023-05-10T10:19:26.161Z,21171
2023-05-10T10:20:26.170Z,21229
2023-05-10T10:21:31.652Z,21281
2023-05-10T10:22:30.696Z,21464
2023-05-10T10:23:30.682Z,21355
2023-05-10T10:24:30.726Z,22057
2023-05-10T10:25:30.675Z,21941
2023-05-10T10:26:30.686Z,22234
2023-05-10T10:27:30.687Z,22247
2023-05-10T10:28:30.687Z,23052
2023-05-10T10:29:30.679Z,21744
2023-05-10T10:30:30.712Z,21375
2023-05-10T10:31:30.698Z,21161
2023-05-10T10:32:30.706Z,23194
2023-05-10T10:33:30.729Z,23012
2023-05-10T10:34:30.680Z,21937
2023-05-10T10:35:30.670Z,22050
2023-05-10T10:36:30.673Z,22258
2023-05-10T10:37:30.677Z,20595
2023-05-10T10:38:30.676Z,21106
2023-05-10T10:39:30.689Z,20592
2023-05-10T10:40:33.540Z,22435
2023-05-10T10:41:30.675Z,21043
2023-05-10T10:42:30.691Z,21152
2023-05-10T10:43:30.686Z,21141
2023-05-10T10:44:30.662Z,20872
2023-05-10T10:45:30.687Z,20697
2023-05-10T10:46:30.692Z,20953
2023-05-10T10:47:30.777Z,21189
2023-05-10T10:48:30.662Z,20960
2023-05-10T10:49:30.667Z,20887
2023-05-10T10:50:30.661Z,20715
2023-05-10T10:51:30.668Z,20817
2023-05-10T10:52:30.678Z,20673
2023-05-10T10:53:30.717Z,20715
2023-05-10T10:54:30.669Z,21434
2023-05-10T10:55:30.666Z,22826
2023-05-10T10:56:30.676Z,20724
2023-05-10T10:57:30.668Z,20662
2023-05-10T10:58:30.672Z,20767
2023-05-10T10:59:30.671Z,21432
2023-05-10T11:00:30.672Z,20982
2023-05-10T11:01:30.677Z,20642
2023-05-10T11:02:31.408Z,21185
2023-05-10T11:03:30.678Z,20345
2023-05-10T11:04:30.714Z,20949
2023-05-10T11:05:30.671Z,21342
2023-05-10T11:06:30.683Z,21473
2023-05-10T11:07:30.663Z,21473
2023-05-10T11:08:30.683Z,21628
2023-05-10T11:09:30.664Z,21637
2023-05-10T11:10:30.665Z,21285
2023-05-10T11:11:30.666Z,21244
2023-05-10T11:12:30.671Z,20702
2023-05-10T11:13:30.660Z,21731
2023-05-10T11:14:30.667Z,21808
2023-05-10T11:15:30.674Z,22094
2023-05-10T11:16:30.674Z,21712
2023-05-10T11:17:30.690Z,21637
2023-05-10T11:18:30.726Z,21259
2023-05-10T11:19:30.668Z,23469
2023-05-10T11:20:30.652Z,21891
2023-05-10T11:21:30.653Z,21687
2023-05-10T11:22:30.665Z,21659
2023-05-10T11:23:30.662Z,21547
2023-05-10T11:24:30.664Z,21508
2023-05-10T11:25:30.667Z,21676
2023-05-10T11:26:30.660Z,21865
2023-05-10T11:27:30.667Z,21989
2023-05-10T11:28:30.661Z,21829
2023-05-10T11:29:30.659Z,21650
2023-05-10T11:30:30.708Z,21495
2023-05-10T11:31:30.943Z,21285
2023-05-10T11:32:30.668Z,21016
2023-05-10T11:33:30.671Z,20994
2023-05-10T11:34:30.676Z,20728
2023-05-10T11:35:30.661Z,20667
2023-05-10T11:36:30.664Z,20853
2023-05-10T11:37:30.664Z,22457
2023-05-10T11:38:30.673Z,22018
2023-05-10T11:39:30.654Z,21676
2023-05-10T11:40:30.663Z,21570
2023-05-10T11:41:30.652Z,21429
2023-05-10T11:42:30.661Z,21121
2023-05-10T11:43:30.660Z,21075
2023-05-10T11:44:30.671Z,21182
2023-05-10T11:45:30.662Z,22188
2023-05-10T11:46:30.704Z,21613
2023-05-10T11:47:30.725Z,21548
2023-05-10T11:48:30.663Z,21294
2023-05-10T11:49:30.754Z,21242
2023-05-10T11:50:30.670Z,20936
2023-05-10T11:51:30.659Z,21629
2023-05-10T11:52:30.666Z,21333
2023-05-10T11:53:30.673Z,21511
2023-05-10T11:54:30.659Z,21511
2023-05-10T11:55:30.665Z,21132
2023-05-10T11:56:30.737Z,20946
2023-05-10T11:57:30.665Z,21123
2023-05-10T11:58:30.659Z,21194
2023-05-10T11:59:30.674Z,21368
2023-05-10T12:00:30.746Z,21416
2023-05-10T12:01:30.667Z,21467
2023-05-10T12:02:30.747Z,21445
2023-05-10T12:03:30.719Z,21368
2023-05-10T12:04:30.852Z,20680
2023-05-10T12:05:30.667Z,20039
2023-05-10T12:06:30.673Z,20157
2023-05-10T12:07:30.665Z,20157
2023-05-10T12:08:30.661Z,19974
2023-05-10T12:09:43.376Z,20334
2023-05-10T12:10:30.653Z,20188
2023-05-10T12:11:30.663Z,21862
2023-05-10T12:12:30.656Z,21128
2023-05-10T12:13:30.656Z,21926
2023-05-10T12:14:30.661Z,19738
2023-05-10T12:15:30.685Z,20547
2023-05-10T12:16:30.754Z,19322
2023-05-10T12:17:30.699Z,19655
2023-05-10T12:18:30.662Z,19497
2023-05-10T12:19:30.658Z,19137
2023-05-10T12:20:30.671Z,19292
2023-05-10T12:21:30.659Z,19412
2023-05-10T12:22:30.657Z,19539
2023-05-10T12:23:30.671Z,20356
2023-05-10T12:24:30.658Z,20230
2023-05-10T12:25:30.677Z,19932
2023-05-10T12:26:30.682Z,20052
2023-05-10T12:27:30.654Z,19480
2023-05-10T12:28:30.662Z,20205
2023-05-10T12:29:30.652Z,20153
2023-05-10T12:30:30.660Z,20345
2023-05-10T12:31:30.726Z,19969
2023-05-10T12:32:30.688Z,19134
2023-05-10T12:33:30.664Z,19803
2023-05-10T12:34:30.664Z,19447
2023-05-10T12:35:30.660Z,19687
2023-05-10T12:36:30.683Z,19477
2023-05-10T12:37:30.659Z,19346
2023-05-10T12:38:30.710Z,18927
2023-05-10T12:39:30.661Z,18758
2023-05-10T12:40:30.700Z,18691
2023-05-10T12:41:30.661Z,19149
2023-05-10T12:42:30.656Z,19687
2023-05-10T12:43:30.663Z,19740
2023-05-10T12:44:30.673Z,19405
2023-05-10T12:45:30.675Z,19222
2023-05-10T12:46:30.785Z,19038
2023-05-10T12:47:30.715Z,19019
2023-05-10T12:48:30.667Z,18074
2023-05-10T12:49:30.676Z,19077
2023-05-10T12:50:30.657Z,19016
2023-05-10T12:51:30.666Z,18809
2023-05-10T12:52:30.660Z,18548
2023-05-10T12:53:30.676Z,18490
2023-05-10T12:54:30.651Z,18441
2023-05-10T12:55:30.649Z,18282
2023-05-10T12:56:30.704Z,18328
2023-05-10T12:57:30.678Z,18103
2023-05-10T12:58:35.960Z,18006
2023-05-10T12:59:30.671Z,17722
2023-05-10T13:00:30.671Z,17882
2023-05-10T13:01:30.698Z,17971
2023-05-10T13:02:30.762Z,17735
2023-05-10T13:03:30.677Z,18148
2023-05-10T13:04:30.754Z,18422
2023-05-10T13:05:30.651Z,18253
2023-05-10T13:06:30.670Z,17930
2023-05-10T13:07:30.664Z,17930
2023-05-10T13:08:30.698Z,17377
2023-05-10T13:09:30.759Z,17021
2023-05-10T13:10:30.655Z,17053
2023-05-10T13:11:30.654Z,16645
2023-05-10T13:12:30.658Z,16218
2023-05-10T13:13:30.664Z,15849
2023-05-10T13:14:30.664Z,16061
2023-05-10T13:15:30.681Z,15945
2023-05-10T13:16:30.714Z,14988
2023-05-10T13:17:32.105Z,15234
2023-05-10T13:18:30.697Z,15634
2023-05-10T13:19:30.664Z,15702
2023-05-10T13:20:30.646Z,16017
2023-05-10T13:21:30.693Z,15986
2023-05-10T13:22:39.790Z,15396
2023-05-10T13:23:30.689Z,16365
2023-05-10T13:24:30.666Z,16406
2023-05-10T13:25:30.647Z,16163